Time;durP1;ratioP1;P1;durP2;ratioP2;P2;SDS_P1;SDS_P2;PMS_P1;PMS_P2;Temp;Humidity;BMP_temperature;BMP_pressure;BME280_temperature;BME280_humidity;BME280_pressure;Samples;Min_cycle;Max_cycle;Signal;HPM_P1;HPM_P2
2022/06/16 00:00:32;;;;;;;12.10;6.00;;;;;;;12.61;67.56;98944.45;108497;1270;22537;-79
2022/06/16 00:03:00;;;;;;;14.70;7.30;;;;;;;12.60;68.06;98947.00;108340;1271;22534;-78
2022/06/16 00:05:30;;;;;;;11.90;6.60;;;;;;;12.57;68.50;98945.77;108468;1271;25461;-78
2022/06/16 00:07:56;;;;;;;11.30;6.90;;;;;;;12.53;68.42;98938.05;108453;1270;24434;-78
2022/06/16 00:10:24;;;;;;;16.70;7.90;;;;;;;12.50;68.16;98943.67;108486;1271;22779;-78
2022/06/16 00:12:51;;;;;;;12.00;7.80;;;;;;;12.47;68.21;98941.45;108446;1269;22537;-78
2022/06/16 00:15:22;;;;;;;11.40;6.90;;;;;;;12.44;68.02;98938.30;108461;1271;22547;-79
2022/06/16 00:17:50;;;;;;;11.40;5.90;;;;;;;12.45;68.26;98936.47;108472;1271;22550;-79
2022/06/16 00:23:04;;;;;;;12.10;6.20;;;;;;;12.40;69.10;98929.83;100531;1266;941861;-75
2022/06/16 00:25:32;;;;;;;11.40;6.30;;;;;;;12.36;69.27;98927.45;108064;1278;22717;-75
2022/06/16 00:27:59;;;;;;;12.40;6.00;;;;;;;12.33;68.94;98924.02;108052;1277;22590;-75
2022/06/16 00:30:26;;;;;;;9.20;6.30;;;;;;;12.30;68.64;98922.61;108095;1277;22624;-75
2022/06/16 00:32:53;;;;;;;10.60;5.80;;;;;;;12.28;68.52;98919.65;108112;1277;22533;-75
2022/06/16 00:35:20;;;;;;;11.00;6.10;;;;;;;12.29;68.73;98917.98;108089;1277;22553;-75
2022/06/16 00:37:47;;;;;;;10.60;6.30;;;;;;;12.29;69.15;98912.95;108070;1277;25242;-75
2022/06/16 00:40:14;;;;;;;12.60;7.80;;;;;;;12.27;69.53;98910.23;108043;1280;22571;-75
2022/06/16 00:42:44;;;;;;;13.40;8.00;;;;;;;12.25;69.38;98904.48;108075;1277;22563;-75
2022/06/16 00:45:48;;;;;;;13.90;7.60;;;;;;;12.23;69.23;98903.77;108118;1277;22611;-75
2022/06/16 00:48:41;;;;;;;11.80;7.20;;;;;;;12.19;68.95;98900.36;108096;1277;22639;-75
2022/06/16 00:51:18;;;;;;;;;;;;;;;12.15;68.87;98902.70;108079;1277;22686;-75
2022/06/16 00:53:46;;;;;;;14.10;7.90;;;;;;;12.14;68.54;98902.61;108039;1278;22624;-75
2022/06/16 00:56:17;;;;;;;13.90;7.80;;;;;;;12.13;69.15;98900.23;108185;1277;22558;-75
2022/06/16 00:58:48;;;;;;;19.50;10.10;;;;;;;12.12;69.64;98899.64;108057;1277;22580;-75
2022/06/16 01:01:20;;;;;;;19.80;10.90;;;;;;;12.08;69.80;98898.12;108060;1277;22588;-75
2022/06/16 01:06:34;;;;;;;16.10;11.10;;;;;;;12.03;69.42;98891.98;108031;1277;23263;-75
2022/06/16 01:09:25;;;;;;;21.70;10.20;;;;;;;12.02;69.45;98889.98;108059;1277;22583;-75
2022/06/16 01:15:20;;;;;;;18.10;9.90;;;;;;;12.05;70.21;98889.95;108054;1277;22599;-74
2022/06/16 01:17:47;;;;;;;17.70;10.30;;;;;;;12.03;70.41;98888.66;108045;1277;23424;-75
2022/06/16 01:20:21;;;;;;;14.80;9.00;;;;;;;12.01;70.19;98887.58;108062;1278;22736;-74
2022/06/16 01:22:56;;;;;;;17.90;10.10;;;;;;;11.99;70.09;98883.54;108035;1277;22612;-74
2022/06/16 01:25:50;;;;;;;21.00;10.50;;;;;;;11.97;69.84;98880.02;108048;1277;22534;-74
2022/06/16 01:28:29;;;;;;;19.50;12.00;;;;;;;11.99;70.12;98879.14;108028;1278;22554;-74
2022/06/16 01:31:33;;;;;;;17.70;11.30;;;;;;;11.99;70.56;98876.19;108037;1278;22541;-75
2022/06/16 01:34:11;;;;;;;14.10;9.10;;;;;;;11.95;70.76;98872.63;107576;1284;22711;-75
2022/06/16 01:36:54;;;;;;;12.40;8.60;;;;;;;11.92;70.28;98873.91;107542;1284;22571;-75
2022/06/16 01:39:37;;;;;;;12.00;7.40;;;;;;;11.88;70.23;98875.75;107580;1284;22553;-75
2022/06/16 01:42:13;;;;;;;11.10;6.80;;;;;;;11.85;69.87;98878.54;107558;1284;22571;-75
2022/06/16 01:44:53;;;;;;;11.70;6.00;;;;;;;11.85;70.10;98875.44;107376;1284;22540;-74
2022/06/16 01:47:22;;;;;;;11.50;6.80;;;;;;;11.82;70.54;98877.70;107605;1284;22800;-74
2022/06/16 01:49:55;;;;;;;10.90;6.10;;;;;;;11.77;71.05;98877.88;107573;1284;22571;-74
2022/06/16 01:52:29;;;;;;;13.10;7.40;;;;;;;11.71;70.87;98872.65;107573;1284;22552;-74
2022/06/16 01:55:03;;;;;;;13.30;7.40;;;;;;;11.69;70.82;98872.80;107594;1284;26764;-74
2022/06/16 01:58:06;;;;;;;13.40;9.00;;;;;;;11.67;70.72;98868.55;107557;1284;22558;-74
2022/06/16 02:00:34;;;;;;;12.10;7.60;;;;;;;11.66;70.48;98871.58;107460;1284;22549;-74
2022/06/16 02:03:11;;;;;;;11.70;6.90;;;;;;;11.67;70.43;98870.45;107601;1284;22555;-75
2022/06/16 02:05:37;;;;;;;15.80;7.40;;;;;;;11.65;71.17;98873.21;107543;1284;22698;-74
2022/06/16 02:08:15;;;;;;;13.80;8.10;;;;;;;11.61;71.18;98874.88;107566;1284;22560;-74
2022/06/16 02:10:47;;;;;;;14.70;8.30;;;;;;;11.56;71.12;98876.73;107658;1279;22679;-74
2022/06/16 02:13:19;;;;;;;14.30;8.20;;;;;;;11.52;71.00;98878.06;108033;1277;22583;-74
2022/06/16 02:16:21;;;;;;;12.60;7.80;;;;;;;11.51;70.81;98879.54;108061;1277;24284;-74
2022/06/16 02:18:54;;;;;;;14.90;8.40;;;;;;;11.53;70.95;98881.19;108039;1277;22542;-74
2022/06/16 02:21:29;;;;;;;14.20;9.60;;;;;;;11.53;71.52;98885.73;108015;1277;22572;-75
2022/06/16 02:23:57;;;;;;;20.50;11.40;;;;;;;11.49;71.50;98884.20;108058;1277;22537;-75
2022/06/16 02:26:26;;;;;;;20.20;12.30;;;;;;;11.47;71.34;98884.64;108467;1277;22568;-75
2022/06/16 02:28:57;;;;;;;25.60;13.70;;;;;;;11.45;71.56;98883.95;108107;1277;24327;-75
2022/06/16 02:31:42;;;;;;;27.20;14.00;;;;;;;11.43;71.22;98888.09;108117;1277;24264;-74
2022/06/16 02:34:18;;;;;;;22.50;13.60;;;;;;;11.46;71.34;98886.17;108080;1277;22646;-74
2022/06/16 02:37:00;;;;;;;23.40;13.80;;;;;;;11.44;71.79;98887.33;108092;1277;22643;-74
2022/06/16 02:39:57;;;;;;;16.30;10.80;;;;;;;11.39;72.18;98888.67;108105;1276;22587;-75
2022/06/16 02:42:32;;;;;;;17.00;10.90;;;;;;;11.36;71.84;98889.59;107557;1284;22552;-75
2022/06/16 02:45:31;;;;;;;22.40;11.00;;;;;;;11.34;71.71;98891.45;107663;1282;23200;-74
2022/06/16 02:48:35;;;;;;;16.10;10.20;;;;;;;11.34;71.57;98888.19;106824;1290;22542;-74
2022/06/16 02:51:13;;;;;;;;;;;;;;;11.36;71.73;98887.84;106881;1290;22573;-74
2022/06/16 02:54:10;;;;;;;18.40;11.50;;;;;;;11.36;71.83;98886.50;106817;1290;25368;-75
2022/06/16 02:56:45;;;;;;;20.40;12.20;;;;;;;11.34;72.07;98884.19;106819;1290;22563;-74
2022/06/16 02:59:33;;;;;;;16.30;10.60;;;;;;;11.31;72.33;98884.86;106835;1290;22548;-74
2022/06/16 03:02:06;;;;;;;18.60;11.90;;;;;;;11.31;71.82;98881.20;106818;1290;23400;-74
2022/06/16 03:04:36;;;;;;;16.80;9.80;;;;;;;11.32;71.67;98882.20;106886;1290;22563;-74
2022/06/16 03:07:03;;;;;;;16.40;9.60;;;;;;;11.37;72.08;98880.80;106817;1290;22579;-75
2022/06/16 03:09:31;;;;;;;15.70;9.70;;;;;;;11.42;72.58;98881.38;106852;1290;22538;-75
2022/06/16 03:11:58;;;;;;;13.10;8.70;;;;;;;11.44;73.02;98883.02;106828;1290;22572;-75
2022/06/16 03:14:25;;;;;;;15.20;9.40;;;;;;;11.43;72.83;98883.02;106833;1290;22538;-75
2022/06/16 03:16:53;;;;;;;17.10;10.30;;;;;;;11.44;72.92;98881.92;106848;1290;22568;-75
2022/06/16 03:19:22;;;;;;;14.60;10.50;;;;;;;11.46;72.56;98882.85;107024;1284;22584;-74
2022/06/16 03:21:50;;;;;;;15.20;9.30;;;;;;;11.47;72.33;98883.27;107386;1284;22567;-75
2022/06/16 03:24:17;;;;;;;14.00;8.50;;;;;;;11.52;72.49;98882.41;107429;1283;23037;-75
2022/06/16 03:26:44;;;;;;;12.90;8.10;;;;;;;11.56;72.89;98882.67;108035;1277;22570;-75
2022/06/16 03:29:13;;;;;;;12.70;9.00;;;;;;;11.59;73.26;98882.48;108043;1277;22566;-75
2022/06/16 03:31:40;;;;;;;16.00;8.70;;;;;;;11.63;73.08;98882.80;108090;1277;25281;-75
2022/06/16 03:34:07;;;;;;;16.00;9.80;;;;;;;11.67;72.93;98881.83;108034;1277;22563;-75
2022/06/16 03:36:36;;;;;;;15.40;9.00;;;;;;;11.72;72.94;98880.82;108006;1277;22580;-75
2022/06/16 03:39:05;;;;;;;14.00;8.30;;;;;;;11.80;72.66;98878.71;108025;1277;22552;-75
2022/06/16 03:41:33;;;;;;;17.40;6.90;;;;;;;11.91;72.83;98882.32;108073;1277;22588;-75
2022/06/16 03:44:00;;;;;;;11.00;6.70;;;;;;;12.03;73.23;98882.23;108286;1277;22550;-75
2022/06/16 03:46:27;;;;;;;13.50;7.60;;;;;;;12.13;73.48;98882.10;108024;1277;25428;-75
2022/06/16 03:48:54;;;;;;;11.90;7.60;;;;;;;12.22;73.29;98877.80;108005;1277;22577;-75
2022/06/16 03:51:21;;;;;;;13.00;8.50;;;;;;;12.30;72.84;98877.95;108043;1276;22585;-75
2022/06/16 03:53:48;;;;;;;12.00;7.80;;;;;;;12.37;72.80;98873.27;108026;1277;22536;-75
2022/06/16 03:56:15;;;;;;;11.90;6.80;;;;;;;12.45;72.51;98873.29;108053;1277;22562;-75
2022/06/16 03:58:42;;;;;;;15.60;6.80;;;;;;;12.56;72.48;98876.52;108051;1277;22551;-75
2022/06/16 04:01:09;;;;;;;12.70;7.10;;;;;;;12.64;72.68;98872.94;108024;1277;25267;-75
2022/06/16 04:06:22;;;;;;;12.40;7.30;;;;;;;12.81;72.64;98867.91;108060;1277;25535;-75
2022/06/16 04:08:49;;;;;;;11.40;7.70;;;;;;;12.88;72.41;98867.06;108063;1277;22701;-75
2022/06/16 04:11:28;;;;;;;11.20;7.60;;;;;;;12.94;72.26;98861.56;108024;1277;22554;-75
2022/06/16 04:14:02;;;;;;;12.20;7.10;;;;;;;13.03;72.16;98863.71;108020;1277;25116;-75
2022/06/16 04:16:32;;;;;;;11.30;5.80;;;;;;;13.15;71.88;98861.97;108006;1277;22573;-75
2022/06/16 04:19:00;;;;;;;9.70;5.80;;;;;;;13.33;71.69;98859.15;108039;1277;22554;-75
2022/06/16 04:21:27;;;;;;;12.80;6.40;;;;;;;13.50;71.58;98857.55;108042;1277;22574;-75
2022/06/16 04:23:55;;;;;;;11.80;6.30;;;;;;;13.65;71.34;98854.17;108222;1277;22587;-75
2022/06/16 04:26:22;;;;;;;11.30;6.10;;;;;;;13.77;70.65;98854.97;108148;1276;22536;-75
2022/06/16 04:28:50;;;;;;;10.20;5.80;;;;;;;13.92;70.04;98854.26;108139;1276;24238;-75
2022/06/16 04:31:17;;;;;;;8.90;5.70;;;;;;;14.07;69.37;98850.48;108068;1276;22557;-75
2022/06/16 04:33:44;;;;;;;9.30;5.90;;;;;;;14.25;69.12;98849.63;108085;1276;22627;-75
2022/06/16 04:36:14;;;;;;;10.90;5.50;;;;;;;14.49;69.07;98852.52;108096;1277;22531;-76
2022/06/16 04:38:41;;;;;;;9.30;5.50;;;;;;;14.79;69.52;98849.28;108121;1276;22649;-76
2022/06/16 04:41:08;;;;;;;11.00;5.50;;;;;;;15.16;69.42;98851.90;108116;1276;22533;-75
2022/06/16 04:43:36;;;;;;;9.80;5.40;;;;;;;15.56;69.73;98847.90;108091;1276;22692;-76
2022/06/16 04:46:06;;;;;;;11.80;6.40;;;;;;;15.96;68.80;98849.36;108103;1276;22710;-76
2022/06/16 04:48:33;;;;;;;9.70;5.80;;;;;;;16.36;68.05;98847.88;108130;1277;22540;-76
2022/06/16 04:51:01;;;;;;;9.20;5.20;;;;;;;16.76;65.89;98841.95;108094;1277;23242;-76
2022/06/16 04:53:28;;;;;;;9.70;5.20;;;;;;;17.16;64.98;98842.01;108075;1276;22564;-76
2022/06/16 04:55:57;;;;;;;10.90;6.80;;;;;;;17.55;64.40;98840.02;108106;1276;22575;-76
2022/06/16 04:58:25;;;;;;;8.70;5.80;;;;;;;17.91;63.05;98834.15;108091;1276;22643;-76
2022/06/16 05:00:54;;;;;;;9.80;5.50;;;;;;;18.24;62.08;98832.77;108071;1276;22627;-76
2022/06/16 05:03:23;;;;;;;11.90;5.70;;;;;;;18.58;60.28;98832.27;108111;1275;22520;-76
2022/06/16 05:05:50;;;;;;;8.20;4.60;;;;;;;18.94;59.60;98832.15;108051;1276;22586;-76
2022/06/16 05:08:18;;;;;;;8.70;5.20;;;;;;;19.19;57.83;98833.40;108101;1276;24329;-76
2022/06/16 05:10:47;;;;;;;10.90;6.00;;;;;;;19.40;57.75;98833.48;108123;1277;22570;-76
2022/06/16 05:13:15;;;;;;;9.20;5.20;;;;;;;19.65;56.74;98830.63;108067;1276;22550;-76
2022/06/16 05:15:43;;;;;;;10.70;5.30;;;;;;;19.90;56.04;98829.71;108099;1276;22583;-76
2022/06/16 05:18:14;;;;;;;9.10;4.90;;;;;;;20.11;54.74;98825.52;108061;1276;22544;-76
2022/06/16 05:20:44;;;;;;;11.40;5.60;;;;;;;20.32;54.13;98823.33;108095;1276;22555;-76
2022/06/16 05:23:12;;;;;;;9.20;5.30;;;;;;;20.38;53.10;98822.05;108099;1276;22707;-76
2022/06/16 05:25:40;;;;;;;12.40;5.30;;;;;;;20.48;52.43;98818.40;108087;1276;22760;-76
2022/06/16 05:28:08;;;;;;;11.80;5.80;;;;;;;20.51;52.31;98820.48;108020;1277;25316;-76
2022/06/16 05:30:35;;;;;;;9.90;5.60;;;;;;;20.59;51.53;98813.48;108083;1277;22533;-76
2022/06/16 05:33:02;;;;;;;8.70;4.70;;;;;;;20.66;51.53;98817.70;108086;1276;22572;-76
2022/06/16 05:35:29;;;;;;;11.30;5.10;;;;;;;20.77;51.43;98814.09;108092;1277;22574;-76
2022/06/16 05:37:56;;;;;;;8.80;5.20;;;;;;;20.90;51.16;98812.48;108138;1276;22570;-77
2022/06/16 05:40:23;;;;;;;9.70;4.60;;;;;;;21.12;51.01;98813.62;108137;1276;22611;-76
2022/06/16 05:42:50;;;;;;;7.10;4.40;;;;;;;21.29;50.22;98807.14;108088;1277;22556;-76
2022/06/16 05:45:17;;;;;;;7.40;4.30;;;;;;;21.40;49.35;98808.13;108100;1276;26725;-76
2022/06/16 05:47:44;;;;;;;6.20;4.10;;;;;;;21.53;48.32;98809.95;108091;1276;22546;-76
2022/06/16 05:50:14;;;;;;;7.50;4.00;;;;;;;21.60;48.05;98804.39;108108;1276;25016;-76
2022/06/16 05:52:41;;;;;;;8.60;4.00;;;;;;;21.72;47.71;98803.23;108276;1276;22652;-76
2022/06/16 05:55:12;;;;;;;6.60;4.00;;;;;;;21.73;46.97;98805.13;108100;1276;22556;-77
2022/06/16 05:57:39;;;;;;;6.60;3.90;;;;;;;21.66;46.37;98801.33;108146;1276;22580;-77
2022/06/16 06:00:08;;;;;;;6.10;3.50;;;;;;;21.63;46.70;98801.71;108096;1276;22626;-76
2022/06/16 06:02:35;;;;;;;7.50;4.10;;;;;;;21.73;46.61;98802.05;108115;1276;25363;-76
2022/06/16 06:05:03;;;;;;;7.50;4.10;;;;;;;21.83;46.49;98797.05;108073;1276;22543;-77
2022/06/16 06:16:25;;;;;;;7.30;3.80;;;;;;;21.93;46.17;98793.16;108123;1276;22540;-77
2022/06/16 06:18:34;;;;;;;6.90;3.70;;;;;;;22.08;45.76;98796.93;108119;1276;25326;-77
2022/06/16 06:21:01;;;;;;;7.50;4.10;;;;;;;22.14;45.81;98800.77;108129;1276;22561;-77
2022/06/16 06:23:28;;;;;;;8.60;4.30;;;;;;;22.20;45.58;98795.86;108102;1276;22571;-76
2022/06/16 06:25:56;;;;;;;8.90;3.80;;;;;;;22.25;45.68;98799.56;108025;1274;22590;-76
2022/06/16 06:28:23;;;;;;;9.60;4.10;;;;;;;22.26;45.59;98796.04;108312;1276;22565;-77
2022/06/16 06:30:50;;;;;;;6.60;4.40;;;;;;;22.29;45.59;98797.85;108076;1274;22534;-76
2022/06/16 06:33:18;;;;;;;9.60;4.00;;;;;;;22.21;45.70;98795.17;108075;1276;22573;-76
2022/06/16 06:35:46;;;;;;;8.80;4.70;;;;;;;22.23;45.95;98791.98;108071;1277;22835;-77
2022/06/16 06:38:14;;;;;;;7.70;3.90;;;;;;;22.30;45.86;98791.49;108082;1276;22561;-76
2022/06/16 06:40:41;;;;;;;6.20;4.30;;;;;;;22.33;46.19;98784.50;108054;1277;22575;-77
2022/06/16 06:43:08;;;;;;;7.00;4.10;;;;;;;22.48;46.55;98786.36;108091;1276;22520;-76
2022/06/16 06:45:35;;;;;;;6.80;4.50;;;;;;;22.67;46.30;98783.83;108104;1276;22625;-79
2022/06/16 06:48:04;;;;;;;8.00;4.40;;;;;;;22.75;46.09;98784.38;108051;1276;22563;-77
2022/06/16 06:50:35;;;;;;;8.40;4.30;;;;;;;22.82;46.10;98783.89;108056;1276;22576;-78
2022/06/16 06:53:02;;;;;;;7.80;4.40;;;;;;;22.92;45.99;98788.10;108108;1276;22673;-78
2022/06/16 06:55:30;;;;;;;6.40;4.20;;;;;;;23.08;45.74;98785.61;108040;1276;22535;-82
2022/06/16 06:57:57;;;;;;;6.20;3.90;;;;;;;23.19;45.64;98784.81;108044;1276;22702;-79
2022/06/16 07:00:29;;;;;;;7.80;3.90;;;;;;;23.28;45.59;98781.52;108043;1276;22555;-79
2022/06/16 07:02:56;;;;;;;9.10;4.50;;;;;;;23.28;45.72;98783.26;108294;1276;22534;-79
2022/06/16 07:05:23;;;;;;;5.50;3.70;;;;;;;23.35;45.64;98779.59;108055;1276;22546;-79
2022/06/16 07:07:51;;;;;;;8.70;3.80;;;;;;;23.30;45.32;98780.91;108023;1276;22585;-79
2022/06/16 07:10:18;;;;;;;8.70;3.80;;;;;;;23.31;45.43;98775.48;108061;1276;22584;-79
2022/06/16 07:12:45;;;;;;;8.20;3.70;;;;;;;23.34;45.46;98774.04;108047;1276;22754;-79
2022/06/16 07:15:13;;;;;;;6.60;3.90;;;;;;;23.41;45.55;98775.15;108090;1276;22547;-79
2022/06/16 07:17:40;;;;;;;7.20;3.60;;;;;;;23.39;45.11;98772.16;108053;1276;25328;-79
2022/06/16 07:20:08;;;;;;;6.60;3.30;;;;;;;23.39;45.55;98770.26;108046;1276;22557;-79
2022/06/16 07:22:35;;;;;;;7.30;3.80;;;;;;;23.41;45.40;98768.55;108024;1276;22582;-79
2022/06/16 07:25:03;;;;;;;7.60;4.30;;;;;;;23.50;45.23;98767.35;108052;1276;22548;-79
2022/06/16 07:27:30;;;;;;;6.20;3.60;;;;;;;23.58;45.18;98766.63;108085;1276;22653;-76
2022/06/16 07:29:57;;;;;;;6.20;3.50;;;;;;;23.69;45.36;98767.83;108336;1277;22706;-79
2022/06/16 07:32:24;;;;;;;6.00;3.30;;;;;;;23.78;45.30;98765.48;108335;1276;23967;-79
2022/06/16 07:34:52;;;;;;;6.30;3.30;;;;;;;23.88;45.27;98764.77;108352;1276;22553;-79
2022/06/16 07:37:19;;;;;;;5.60;3.30;;;;;;;23.99;45.59;98761.78;108334;1276;22669;-79
2022/06/16 07:39:46;;;;;;;7.00;3.50;;;;;;;24.08;45.51;98762.06;108357;1276;22563;-79
2022/06/16 07:42:14;;;;;;;7.30;3.40;;;;;;;24.20;45.36;98762.98;108046;1277;22574;-79
2022/06/16 07:44:41;;;;;;;5.90;3.30;;;;;;;24.29;45.35;98763.37;108054;1276;22671;-79
2022/06/16 07:47:08;;;;;;;6.00;3.90;;;;;;;24.32;45.16;98763.59;108039;1276;23383;-80
2022/06/16 07:49:35;;;;;;;6.50;3.20;;;;;;;24.42;44.98;98762.30;108079;1276;22551;-81
2022/06/16 07:52:02;;;;;;;5.40;3.10;;;;;;;24.49;44.81;98763.20;108068;1276;25596;-79
2022/06/16 07:54:29;;;;;;;6.50;3.30;;;;;;;24.53;44.67;98764.53;108071;1276;22557;-79
2022/06/16 07:56:57;;;;;;;7.30;3.20;;;;;;;24.65;44.50;98764.25;108111;1276;22534;-76
2022/06/16 07:59:24;;;;;;;6.20;3.50;;;;;;;24.79;44.84;98764.74;108099;1276;24377;-78
2022/06/16 08:01:51;;;;;;;7.20;3.10;;;;;;;24.93;45.03;98761.59;108035;1276;22614;-79
2022/06/16 08:04:18;;;;;;;6.00;3.50;;;;;;;25.02;44.65;98759.58;108041;1276;22554;-79
2022/06/16 08:06:45;;;;;;;5.20;3.30;;;;;;;25.06;44.47;98759.08;108038;1276;23948;-79
2022/06/16 08:09:12;;;;;;;6.40;3.40;;;;;;;25.14;44.60;98752.02;108015;1277;22583;-81
2022/06/16 08:14:25;;;;;;;7.40;3.50;;;;;;;25.25;44.68;98749.58;108073;1276;23295;-79
2022/06/16 08:16:53;;;;;;;6.10;3.40;;;;;;;25.38;44.67;98749.47;108055;1276;22629;-79
2022/06/16 08:19:20;;;;;;;8.10;4.00;;;;;;;25.55;44.73;98749.05;108082;1276;22577;-80
2022/06/16 08:21:48;;;;;;;6.40;3.20;;;;;;;25.65;44.27;98747.82;108124;1276;25357;-80
2022/06/16 08:24:16;;;;;;;6.80;3.90;;;;;;;25.74;43.94;98748.67;108061;1276;22597;-79
2022/06/16 08:26:44;;;;;;;6.50;3.80;;;;;;;25.77;44.28;98746.14;108099;1276;22633;-79
2022/06/16 08:29:14;;;;;;;8.00;3.90;;;;;;;25.80;43.88;98742.88;108148;1276;22547;-79
2022/06/16 08:31:41;;;;;;;7.70;3.60;;;;;;;25.75;44.07;98741.52;108122;1277;22537;-80
2022/06/16 08:34:09;;;;;;;5.50;3.70;;;;;;;25.68;43.97;98745.16;108094;1276;22569;-78
2022/06/16 08:36:37;;;;;;;6.20;3.20;;;;;;;25.69;44.09;98742.62;108051;1277;22542;-79
2022/06/16 08:39:05;;;;;;;5.10;3.10;;;;;;;25.76;44.15;98742.10;108048;1276;24300;-79
2022/06/16 08:42:02;;;;;;;7.30;3.40;;;;;;;25.81;44.10;98737.81;108050;1276;22601;-78
2022/06/16 08:44:39;;;;;;;6.70;3.00;;;;;;;25.88;44.00;98735.64;108105;1276;22574;-80
2022/06/16 08:47:22;;;;;;;7.00;3.40;;;;;;;25.94;43.65;98733.63;108117;1276;22571;-79
2022/06/16 08:49:53;;;;;;;7.60;3.20;;;;;;;25.82;43.32;98734.75;108120;1276;22709;-78
2022/06/16 08:52:45;;;;;;;6.00;3.10;;;;;;;25.82;43.08;98738.37;108239;1276;25387;-79
2022/06/16 08:56:00;;;;;;;5.00;2.90;;;;;;;25.90;42.70;98739.83;108337;1276;22568;-79
2022/06/16 08:58:59;;;;;;;5.90;3.00;;;;;;;25.92;42.36;98742.60;108381;1276;22553;-79
2022/06/16 09:01:38;;;;;;;6.10;3.20;;;;;;;26.13;42.64;98744.41;108349;1277;25382;-78
2022/06/16 09:04:24;;;;;;;5.10;3.10;;;;;;;26.24;41.36;98743.83;108322;1276;22716;-79
2022/06/16 09:07:20;;;;;;;7.30;2.90;;;;;;;26.40;41.24;98740.01;108348;1277;22598;-80
2022/06/16 09:10:18;;;;;;;6.50;3.20;;;;;;;26.55;40.77;98738.48;108356;1276;23212;-79
2022/06/16 09:13:22;;;;;;;4.00;2.90;;;;;;;26.64;41.08;98744.54;108383;1276;22539;-80
2022/06/16 09:16:10;;;;;;;5.50;3.10;;;;;;;26.78;39.91;98749.99;108341;1276;22576;-80
2022/06/16 09:18:53;;;;;;;4.50;2.70;;;;;;;26.89;38.82;98751.49;108368;1276;22664;-80
2022/06/16 09:21:44;;;;;;;4.80;2.70;;;;;;;27.09;38.84;98752.35;108337;1274;22557;-78
2022/06/16 09:24:17;;;;;;;6.90;3.00;;;;;;;27.36;38.63;98746.59;107995;1276;449192;-81
2022/06/16 09:27:06;;;;;;;4.40;2.70;;;;;;;27.66;38.33;98743.71;108359;1276;22721;-78
2022/06/16 09:29:54;;;;;;;8.00;2.80;;;;;;;27.84;37.99;98744.13;108361;1276;22563;-79
2022/06/16 09:32:42;;;;;;;5.20;3.00;;;;;;;28.00;37.87;98739.20;108363;1276;23922;-80
2022/06/16 09:35:29;;;;;;;4.60;3.00;;;;;;;28.01;37.28;98736.55;108374;1276;22659;-79
2022/06/16 09:38:05;;;;;;;6.70;3.00;;;;;;;28.16;37.84;98735.27;108353;1276;24315;-81
2022/06/16 09:40:37;;;;;;;7.70;3.10;;;;;;;28.24;37.29;98736.42;108361;1276;22556;-79
2022/06/16 09:43:14;;;;;;;;;;;;;;;28.29;37.25;98738.52;108379;1276;22540;-79
2022/06/16 09:45:48;;;;;;;6.40;3.20;;;;;;;28.29;37.60;98733.89;108328;1276;22531;-79
2022/06/16 09:48:30;;;;;;;5.80;2.90;;;;;;;28.37;37.98;98732.05;108365;1276;22789;-81
2022/06/16 09:51:12;;;;;;;7.60;3.20;;;;;;;28.35;37.33;98733.17;108374;1276;22605;-81
2022/06/16 09:53:48;;;;;;;5.40;2.80;;;;;;;28.31;37.54;98737.04;108368;1276;24296;-79
2022/06/16 09:56:31;;;;;;;5.20;2.70;;;;;;;28.14;36.81;98736.05;108282;1276;22562;-81
2022/06/16 09:59:03;;;;;;;4.70;2.90;;;;;;;27.96;37.21;98737.63;108146;1276;25307;-79
2022/06/16 10:01:35;;;;;;;5.70;2.80;;;;;;;27.91;37.54;98735.33;108178;1276;22541;-78
2022/06/16 10:04:07;;;;;;;4.70;2.70;;;;;;;27.84;37.41;98736.16;108309;1276;22551;-78
2022/06/16 10:06:48;;;;;;;7.10;2.80;;;;;;;27.76;37.77;98733.57;108347;1276;22563;-78
2022/06/16 10:09:28;;;;;;;4.70;2.60;;;;;;;27.62;38.20;98734.45;108320;1276;22626;-78
2022/06/16 10:12:35;;;;;;;5.30;2.70;;;;;;;27.40;38.18;98727.70;108323;1276;22583;-79
2022/06/16 10:15:19;;;;;;;5.20;2.60;;;;;;;27.32;38.81;98721.66;108297;1276;22560;-78
2022/06/16 10:17:48;;;;;;;4.20;2.60;;;;;;;27.37;39.32;98717.96;108348;1276;22695;-79
2022/06/16 10:20:17;;;;;;;3.60;2.60;;;;;;;27.36;39.49;98715.61;108363;1276;22630;-80
2022/06/16 10:22:50;;;;;;;6.80;2.90;;;;;;;27.40;39.76;98716.64;108355;1276;22550;-80
2022/06/16 10:25:35;;;;;;;5.60;2.90;;;;;;;27.36;39.54;98716.96;108340;1276;22557;-80
2022/06/16 10:28:24;;;;;;;8.40;2.70;;;;;;;27.28;39.26;98712.17;108363;1276;22547;-79
2022/06/16 10:30:51;;;;;;;4.80;2.50;;;;;;;27.29;39.34;98721.11;108331;1276;22547;-79
2022/06/16 10:33:26;;;;;;;6.00;2.40;;;;;;;27.38;38.94;98718.16;108383;1276;25494;-79
2022/06/16 10:36:16;;;;;;;4.30;2.20;;;;;;;27.53;37.36;98717.41;108359;1276;22616;-79
2022/06/16 10:38:46;;;;;;;5.00;2.50;;;;;;;27.68;36.46;98712.91;108360;1276;22564;-79
2022/06/16 10:41:29;;;;;;;4.00;2.30;;;;;;;27.72;36.71;98713.51;108363;1276;22566;-79
2022/06/16 10:43:59;;;;;;;4.20;2.60;;;;;;;27.78;36.67;98712.71;108376;1276;22585;-78
2022/06/16 10:46:45;;;;;;;5.90;2.50;;;;;;;27.86;36.33;98707.71;108213;1276;22550;-79
2022/06/16 10:49:19;;;;;;;4.90;2.50;;;;;;;27.90;36.39;98708.70;108232;1276;22621;-80
2022/06/16 10:51:52;;;;;;;5.20;2.50;;;;;;;27.99;36.76;98709.80;108070;1276;22669;-80
2022/06/16 10:54:27;;;;;;;5.90;2.90;;;;;;;28.18;36.24;98706.56;108068;1276;22651;-80
2022/06/16 10:57:13;;;;;;;5.70;2.70;;;;;;;28.45;36.20;98702.26;108042;1276;22729;-81
2022/06/16 10:59:47;;;;;;;4.90;3.40;;;;;;;28.64;36.04;98701.77;108333;1277;22536;-77
2022/06/16 11:02:22;;;;;;;7.20;2.70;;;;;;;28.64;36.13;98708.56;108330;1276;22639;-78
2022/06/16 11:04:55;;;;;;;5.10;2.80;;;;;;;28.63;36.12;98704.55;108298;1277;22623;-78
2022/06/16 11:07:23;;;;;;;6.60;2.50;;;;;;;28.68;36.05;98697.55;108361;1276;22548;-78
2022/06/16 11:09:51;;;;;;;4.70;2.50;;;;;;;28.82;35.61;98698.70;108393;1276;25949;-77
2022/06/16 11:12:23;;;;;;;4.70;2.20;;;;;;;29.02;35.35;98693.58;108328;1276;22562;-82
2022/06/16 11:14:57;;;;;;;4.00;2.70;;;;;;;29.20;34.63;98691.48;108335;1276;22569;-77
2022/06/16 11:17:36;;;;;;;4.20;2.70;;;;;;;29.33;33.58;98689.62;108349;1276;22560;-78
2022/06/16 11:20:22;;;;;;;7.30;2.60;;;;;;;29.54;33.29;98681.79;108333;1276;22560;-78
2022/06/16 11:22:50;;;;;;;7.50;2.50;;;;;;;29.69;33.14;98683.48;108302;1276;22605;-80
2022/06/16 11:25:31;;;;;;;4.80;2.70;;;;;;;29.77;33.35;98680.05;108030;1277;25522;-81
2022/06/16 11:28:04;;;;;;;6.30;2.80;;;;;;;29.71;33.44;98675.52;108092;1279;22583;-80
2022/06/16 11:30:43;;;;;;;4.20;2.20;;;;;;;29.53;32.76;98677.36;108275;1279;22623;-80
2022/06/16 11:36:19;;;;;;;6.60;2.70;;;;;;;29.13;33.10;98670.11;107987;1279;22553;-80
2022/06/16 11:38:56;;;;;;;5.20;2.60;;;;;;;29.04;33.78;98671.73;108226;1279;22556;-79
2022/06/16 11:41:25;;;;;;;3.80;2.60;;;;;;;29.04;33.61;98671.08;107998;1279;22577;-80
2022/06/16 11:44:09;;;;;;;4.40;2.50;;;;;;;29.03;33.75;98670.30;107965;1279;22575;-80
2022/06/16 11:46:48;;;;;;;4.20;2.60;;;;;;;29.24;33.77;98668.41;107996;1279;22534;-79
2022/06/16 11:49:30;;;;;;;6.40;2.90;;;;;;;29.40;34.02;98672.65;107949;1279;22636;-78
2022/06/16 11:52:19;;;;;;;4.30;2.30;;;;;;;29.66;33.66;98671.37;107981;1279;22636;-78
2022/06/16 11:55:13;;;;;;;4.70;2.60;;;;;;;29.78;33.17;98668.48;107981;1279;22538;-79
2022/06/16 11:58:08;;;;;;;4.90;2.60;;;;;;;29.76;33.30;98664.40;107972;1279;22613;-79
2022/06/16 12:00:43;;;;;;;7.60;3.00;;;;;;;29.70;33.61;98659.61;107920;1279;22617;-79
2022/06/16 12:03:10;;;;;;;4.90;2.80;;;;;;;29.64;34.16;98657.76;107930;1279;22546;-79
2022/06/16 12:06:25;;;;;;;3.90;2.80;;;;;;;29.69;34.51;98657.95;107974;1279;22547;-79
2022/06/16 12:08:58;;;;;;;4.20;2.50;;;;;;;29.53;34.30;98657.90;107832;1279;22558;-80
2022/06/16 12:11:28;;;;;;;5.80;2.70;;;;;;;29.43;34.05;98650.38;107968;1278;22617;-80
2022/06/16 12:14:00;;;;;;;4.90;2.70;;;;;;;29.20;34.34;98648.77;107931;1279;22550;-79
2022/06/16 12:16:39;;;;;;;6.20;3.20;;;;;;;28.90;34.70;98645.53;107980;1279;22613;-79